createdAt,value
2022-09-14T00:01:31.618Z,60.7
2022-09-14T00:03:15.283Z,60.7
2022-09-14T00:04:58.977Z,60.7
2022-09-14T00:06:42.759Z,60.7
2022-09-14T00:08:26.436Z,60.7
2022-09-14T00:10:10.108Z,60.7
2022-09-14T00:11:53.784Z,60.7
2022-09-14T00:13:37.494Z,60.7
2022-09-14T00:15:21.199Z,60.7
2022-09-14T00:17:04.940Z,60.7
2022-09-14T00:18:48.581Z,60.7
2022-09-14T00:20:32.312Z,60.7
2022-09-14T00:22:15.998Z,60.7
2022-09-14T00:23:59.703Z,60.7
2022-09-14T00:25:43.404Z,60.7
2022-09-14T00:27:27.125Z,60.7
2022-09-14T00:29:10.803Z,60.7
2022-09-14T00:30:54.501Z,60.7
2022-09-14T00:32:38.207Z,60.7
2022-09-14T00:34:21.901Z,60.7
2022-09-14T00:36:05.618Z,60.7
2022-09-14T00:37:49.320Z,60.7
2022-09-14T00:39:33.021Z,60.7
2022-09-14T00:41:16.734Z,60.7
2022-09-14T00:43:00.422Z,60.7
2022-09-14T00:44:44.157Z,60.7
2022-09-14T00:46:27.848Z,60.7
2022-09-14T00:48:11.544Z,60.7
2022-09-14T00:49:55.247Z,60.7
2022-09-14T00:51:38.940Z,60.7
2022-09-14T00:53:22.638Z,60.7
2022-09-14T00:55:06.331Z,60.7
2022-09-14T00:56:50.044Z,60.7
2022-09-14T00:58:33.739Z,60.7
2022-09-14T01:00:17.429Z,60.7
2022-09-14T01:02:01.146Z,60.7
2022-09-14T01:03:44.838Z,60.7
2022-09-14T01:05:28.547Z,60.7
2022-09-14T01:07:12.299Z,60.7
2022-09-14T01:08:55.953Z,60.7
2022-09-14T01:10:39.658Z,60.7
2022-09-14T01:12:23.326Z,60.7
2022-09-14T01:14:07.051Z,60.7
2022-09-14T01:15:50.752Z,60.7
2022-09-14T01:17:34.452Z,60.7
2022-09-14T01:19:18.130Z,60.7
2022-09-14T01:21:01.844Z,60.7
2022-09-14T01:22:45.546Z,60.7
2022-09-14T01:24:29.258Z,60.7
2022-09-14T01:26:12.932Z,60.7
2022-09-14T01:27:56.639Z,60.7
2022-09-14T01:29:40.357Z,60.7
2022-09-14T01:31:24.058Z,60.7
2022-09-14T01:33:07.749Z,60.7
2022-09-14T01:34:51.444Z,60.7
2022-09-14T01:36:35.153Z,60.7
2022-09-14T01:38:18.897Z,60.7
2022-09-14T01:40:02.564Z,60.7
2022-09-14T01:41:46.261Z,60.7
2022-09-14T01:43:29.952Z,60.7
2022-09-14T01:45:13.706Z,60.7
2022-09-14T01:46:57.358Z,60.7
2022-09-14T01:48:41.062Z,60.8
2022-09-14T01:50:24.763Z,60.8
2022-09-14T01:52:08.496Z,60.8
2022-09-14T01:53:52.180Z,60.8
2022-09-14T01:55:35.885Z,60.8
2022-09-14T01:57:19.576Z,60.8
2022-09-14T01:59:03.272Z,60.8
2022-09-14T02:00:46.983Z,60.8
2022-09-14T02:02:30.795Z,60.8
2022-09-14T02:04:14.411Z,60.8
2022-09-14T02:05:58.097Z,60.8
2022-09-14T02:07:41.812Z,60.8
2022-09-14T02:09:25.512Z,60.9
2022-09-14T02:11:09.208Z,60.8
2022-09-14T02:12:52.900Z,60.8
2022-09-14T02:14:36.608Z,60.9
2022-09-14T02:16:20.298Z,60.9
2022-09-14T02:18:04.021Z,60.8
2022-09-14T02:19:47.739Z,60.9
2022-09-14T02:21:31.422Z,60.9
2022-09-14T02:23:15.125Z,60.9
2022-09-14T02:24:58.828Z,60.9
2022-09-14T02:26:42.516Z,60.9
2022-09-14T02:28:26.237Z,60.9
2022-09-14T02:30:09.953Z,60.9
2022-09-14T02:31:53.633Z,60.9
2022-09-14T02:33:37.314Z,60.9
2022-09-14T02:35:21.041Z,60.9
2022-09-14T02:37:04.735Z,61
2022-09-14T02:38:48.413Z,61
2022-09-14T02:40:32.115Z,61
2022-09-14T02:42:15.856Z,61
2022-09-14T02:43:59.538Z,61
2022-09-14T02:45:43.229Z,61
2022-09-14T02:47:26.923Z,61
2022-09-14T02:49:10.627Z,61
2022-09-14T02:50:54.334Z,61
2022-09-14T02:52:38.041Z,61
2022-09-14T02:54:21.721Z,61
2022-09-14T02:56:05.432Z,61
2022-09-14T02:57:49.129Z,61
2022-09-14T02:59:32.842Z,61
2022-09-14T03:01:16.529Z,61
2022-09-14T03:03:00.221Z,61
2022-09-14T03:04:43.928Z,61
2022-09-14T03:06:27.626Z,61
2022-09-14T03:08:11.339Z,61
2022-09-14T03:09:55.035Z,61
2022-09-14T03:11:38.735Z,61.1
2022-09-14T03:13:22.443Z,61
2022-09-14T03:15:06.139Z,61
2022-09-14T03:16:49.850Z,61
2022-09-14T03:18:33.542Z,61
2022-09-14T03:20:17.262Z,61.1
2022-09-14T03:22:00.933Z,61.1
2022-09-14T03:23:44.645Z,61.1
2022-09-14T03:25:28.343Z,61.1
2022-09-14T03:27:12.046Z,61.1
2022-09-14T03:28:55.755Z,61.1
2022-09-14T03:30:39.440Z,61.1
2022-09-14T03:32:23.141Z,61.1
2022-09-14T03:34:06.855Z,61.1
2022-09-14T03:35:50.551Z,61.1
2022-09-14T03:37:34.273Z,61.1
2022-09-14T03:39:17.946Z,61.1
2022-09-14T03:41:01.695Z,61.1
2022-09-14T03:42:45.349Z,61.1
2022-09-14T03:44:29.042Z,61.1
2022-09-14T03:46:12.745Z,61.1
2022-09-14T03:47:56.467Z,61.1
2022-09-14T03:49:40.151Z,61.1
2022-09-14T03:51:23.853Z,61.1
2022-09-14T03:53:07.555Z,61.1
2022-09-14T03:54:51.259Z,61.1
2022-09-14T03:56:34.948Z,61.1
2022-09-14T03:58:18.667Z,61.1
2022-09-14T04:00:02.417Z,61.1
2022-09-14T04:01:46.166Z,61.2
2022-09-14T04:03:29.764Z,61.1
2022-09-14T04:05:13.466Z,61.2
2022-09-14T04:06:57.173Z,61.2
2022-09-14T04:08:40.869Z,61.2
2022-09-14T04:10:24.578Z,61.2
2022-09-14T04:12:08.269Z,61.2
2022-09-14T04:13:51.964Z,61.2
2022-09-14T04:15:35.704Z,61.2
2022-09-14T04:17:19.371Z,61.2
2022-09-14T04:19:03.073Z,61.2
2022-09-14T04:20:46.771Z,61.2
2022-09-14T04:22:30.515Z,61.2
2022-09-14T04:24:14.213Z,61.2
2022-09-14T04:25:57.880Z,61.2
2022-09-14T04:27:41.596Z,61.2
2022-09-14T04:29:25.302Z,61.2
2022-09-14T04:31:08.972Z,61.2
2022-09-14T04:32:52.704Z,61.2
2022-09-14T04:34:36.391Z,61.2
2022-09-14T04:36:20.102Z,61.2
2022-09-14T04:38:03.790Z,61.3
2022-09-14T04:41:31.241Z,61.2
2022-09-14T04:43:14.913Z,61.2
2022-09-14T04:44:58.627Z,61.3
2022-09-14T04:46:42.302Z,61.2
2022-09-14T04:48:26.013Z,61.2
2022-09-14T04:50:09.714Z,61.2
2022-09-14T04:51:53.414Z,61.2
2022-09-14T04:53:37.110Z,61.2
2022-09-14T04:55:20.811Z,61.2
2022-09-14T04:57:04.542Z,61.3
2022-09-14T04:58:48.201Z,61.2
2022-09-14T05:00:31.926Z,61.2
2022-09-14T05:02:15.605Z,61.2
2022-09-14T05:03:59.333Z,61.2
2022-09-14T05:05:43.022Z,61.2
2022-09-14T05:07:26.713Z,61.2
2022-09-14T05:09:10.436Z,61.2
2022-09-14T05:10:54.128Z,61.2
2022-09-14T05:12:37.835Z,61.2
2022-09-14T05:14:21.519Z,61.2
2022-09-14T05:16:05.231Z,61.2
2022-09-14T05:17:48.932Z,61.2
2022-09-14T05:19:32.640Z,61.2
2022-09-14T05:21:16.339Z,61.2
2022-09-14T05:23:00.074Z,61.2
2022-09-14T05:24:43.777Z,61.2
2022-09-14T05:26:27.441Z,61.2
2022-09-14T05:28:11.133Z,61.2
2022-09-14T05:29:54.843Z,61.2
2022-09-14T05:31:38.555Z,61.1
2022-09-14T05:33:22.250Z,61.1
2022-09-14T05:35:05.960Z,61.1
2022-09-14T05:36:49.669Z,61.1
2022-09-14T05:38:33.356Z,61.1
2022-09-14T05:40:17.073Z,61.1
2022-09-14T05:42:00.757Z,61.1
2022-09-14T05:43:44.468Z,61
2022-09-14T05:45:28.166Z,61
2022-09-14T05:47:11.844Z,61.1
2022-09-14T05:48:55.550Z,61.1
2022-09-14T05:50:39.274Z,61.1
2022-09-14T05:52:22.996Z,61.1
2022-09-14T05:54:06.706Z,61.1
2022-09-14T05:55:50.365Z,61.1
2022-09-14T05:57:34.092Z,61
2022-09-14T05:59:17.775Z,61
2022-09-14T06:01:01.488Z,61
2022-09-14T06:02:45.163Z,61
2022-09-14T06:04:28.879Z,61
2022-09-14T06:06:12.614Z,60.9
2022-09-14T06:07:56.266Z,60.9
2022-09-14T06:09:39.983Z,60.8
2022-09-14T06:11:23.784Z,60.7
2022-09-14T06:13:07.413Z,60.6
2022-09-14T06:14:51.061Z,60.5
2022-09-14T06:16:34.784Z,60.4
2022-09-14T06:18:18.525Z,60.3
2022-09-14T06:20:02.181Z,60.1
2022-09-14T06:21:45.861Z,59.9
2022-09-14T06:23:29.567Z,59.7
2022-09-14T06:25:13.294Z,59.6
2022-09-14T06:26:57.030Z,59.4
2022-09-14T06:28:40.659Z,59.3
2022-09-14T06:30:24.394Z,59.1
2022-09-14T06:32:08.062Z,59
2022-09-14T06:33:51.770Z,58.9
2022-09-14T06:35:35.449Z,58.8
2022-09-14T06:37:19.180Z,58.7
2022-09-14T06:39:02.880Z,58.5
2022-09-14T06:40:46.564Z,58.5
2022-09-14T06:42:30.261Z,58.4
2022-09-14T06:44:14.001Z,58.3
2022-09-14T06:45:57.669Z,58.2
2022-09-14T06:47:41.374Z,58.1
2022-09-14T06:49:25.058Z,58
2022-09-14T06:51:08.764Z,57.9
2022-09-14T06:52:52.453Z,57.9
2022-09-14T06:54:36.179Z,57.9
2022-09-14T06:56:19.856Z,57.8
2022-09-14T06:58:03.558Z,57.8
2022-09-14T06:59:47.260Z,57.8
2022-09-14T07:01:30.994Z,57.7
2022-09-14T07:03:14.685Z,57.7
2022-09-14T07:04:58.359Z,57.8
2022-09-14T07:06:42.062Z,57.8
2022-09-14T07:08:25.770Z,57.8
2022-09-14T07:10:09.477Z,57.8
2022-09-14T07:11:53.160Z,57.9
2022-09-14T07:13:36.857Z,57.9
2022-09-14T07:15:20.599Z,57.9
2022-09-14T07:17:04.277Z,57.9
2022-09-14T07:18:47.976Z,57.9
2022-09-14T07:20:31.683Z,57.9
2022-09-14T07:22:15.364Z,57.8
2022-09-14T07:23:59.124Z,57.8
2022-09-14T07:25:42.778Z,57.7
2022-09-14T07:27:26.490Z,57.6
2022-09-14T07:29:10.168Z,57.5
2022-09-14T07:30:53.873Z,57.4
2022-09-14T07:32:37.691Z,57.3
2022-09-14T07:34:21.281Z,57.1
2022-09-14T07:36:04.972Z,56.9
2022-09-14T07:37:48.676Z,56.8
2022-09-14T07:39:32.376Z,56.7
2022-09-14T07:41:16.096Z,56.6
2022-09-14T07:42:59.787Z,56.5
2022-09-14T07:44:43.486Z,56.5
2022-09-14T07:46:27.189Z,56.4
2022-09-14T07:48:10.913Z,56.4
2022-09-14T07:49:54.590Z,56.3
2022-09-14T07:51:38.285Z,56.3
2022-09-14T07:53:22.011Z,56.1
2022-09-14T07:55:05.798Z,56.1
2022-09-14T07:56:49.390Z,55.9
2022-09-14T07:58:33.109Z,55.8
2022-09-14T08:00:16.819Z,55.7
2022-09-14T08:02:00.521Z,55.5
2022-09-14T08:03:44.221Z,55.3
2022-09-14T08:05:27.932Z,55.2
2022-09-14T08:07:11.617Z,54.9
2022-09-14T08:08:55.314Z,54.8
2022-09-14T08:10:39.021Z,54.6
2022-09-14T08:12:22.736Z,54.1
2022-09-14T08:14:06.429Z,53.9
2022-09-14T08:15:50.145Z,53.8
2022-09-14T08:17:33.820Z,53.8
2022-09-14T08:19:17.532Z,53.9
2022-09-14T08:21:01.240Z,53.9
2022-09-14T08:22:44.928Z,53.9
2022-09-14T08:24:28.642Z,53.9
2022-09-14T08:26:12.347Z,53.9
2022-09-14T08:27:56.042Z,54
2022-09-14T08:29:39.734Z,54
2022-09-14T08:31:23.455Z,54.1
2022-09-14T08:33:07.149Z,54.2
2022-09-14T08:34:50.846Z,54.4
2022-09-14T08:36:34.544Z,54.5
2022-09-14T08:38:18.245Z,54.6
2022-09-14T08:40:01.945Z,54.8
2022-09-14T08:41:45.655Z,55
2022-09-14T08:43:29.334Z,55.1
2022-09-14T08:46:56.773Z,55.1
2022-09-14T08:48:40.453Z,55.1
2022-09-14T08:50:23.845Z,55.1
2022-09-14T08:52:07.536Z,55.1
2022-09-14T08:53:51.258Z,55.1
2022-09-14T08:55:34.965Z,55.2
2022-09-14T08:57:18.663Z,55.3
2022-09-14T08:59:02.340Z,55.4
2022-09-14T09:00:46.051Z,55.4
2022-09-14T09:02:29.794Z,55.4
2022-09-14T09:04:13.448Z,55.4
2022-09-14T09:05:57.153Z,55.4
2022-09-14T09:07:40.891Z,55.4
2022-09-14T09:09:24.615Z,55.5
2022-09-14T09:11:08.349Z,55.5
2022-09-14T09:12:51.972Z,55.6
2022-09-14T09:14:35.680Z,55.5
2022-09-14T09:16:19.389Z,55.4
2022-09-14T09:18:03.065Z,55.4
2022-09-14T09:19:46.776Z,55.3
2022-09-14T09:21:30.470Z,55.3
2022-09-14T09:23:14.168Z,55.2
2022-09-14T09:24:57.895Z,55.1
2022-09-14T09:26:41.583Z,55.1
2022-09-14T09:28:25.313Z,55.1
2022-09-14T09:30:09.033Z,55.1
2022-09-14T09:31:52.700Z,55
2022-09-14T09:33:36.409Z,55
2022-09-14T09:35:20.096Z,55
2022-09-14T09:37:03.799Z,55.1
2022-09-14T09:38:47.507Z,55.1
2022-09-14T09:40:31.238Z,55.1
2022-09-14T09:42:14.912Z,55.1
2022-09-14T09:43:58.608Z,55.2
2022-09-14T09:45:42.309Z,55.3
2022-09-14T09:47:26.021Z,55.4
2022-09-14T09:49:09.749Z,55.4
2022-09-14T09:50:53.410Z,55.4
2022-09-14T09:52:37.130Z,55.4
2022-09-14T09:54:20.875Z,55.4
2022-09-14T09:56:04.523Z,55.4
2022-09-14T09:57:48.221Z,55.5
2022-09-14T09:59:31.932Z,55.4
2022-09-14T10:01:15.700Z,55.2
2022-09-14T10:02:59.372Z,55
2022-09-14T10:04:43.100Z,54.7
2022-09-14T10:06:26.733Z,54.5
2022-09-14T10:08:10.467Z,54.2
2022-09-14T10:09:54.151Z,54.1
2022-09-14T10:11:37.888Z,54.1
2022-09-14T10:13:21.618Z,54.1
2022-09-14T10:15:05.242Z,54.3
2022-09-14T10:16:48.948Z,54.6
2022-09-14T10:18:32.655Z,54.9
2022-09-14T10:20:16.356Z,55
2022-09-14T10:22:00.085Z,54.8
2022-09-14T10:23:43.745Z,54.7
2022-09-14T10:25:27.466Z,54.5
2022-09-14T10:27:11.173Z,54.5
2022-09-14T10:28:54.865Z,54.3
2022-09-14T10:30:38.579Z,54.2
2022-09-14T10:32:22.258Z,54.2
2022-09-14T10:34:05.970Z,54.2
2022-09-14T10:35:49.696Z,54.2
2022-09-14T10:37:33.348Z,54.2
2022-09-14T10:39:17.095Z,54.2
2022-09-14T10:41:00.772Z,54.1
2022-09-14T10:42:44.465Z,54.2
2022-09-14T10:44:28.179Z,54.2
2022-09-14T10:46:11.876Z,54.2
2022-09-14T10:47:55.613Z,54.2
2022-09-14T10:49:39.269Z,54.2
2022-09-14T10:51:23.077Z,54.2
2022-09-14T10:53:06.829Z,54.1
2022-09-14T10:54:50.511Z,54.1
2022-09-14T10:56:34.164Z,54
2022-09-14T10:58:17.788Z,53.9
2022-09-14T11:00:01.497Z,53.8
2022-09-14T11:01:45.231Z,53.8
2022-09-14T11:03:28.947Z,53.7
2022-09-14T11:05:12.730Z,53.7
2022-09-14T11:06:56.331Z,53.6
2022-09-14T11:08:40.067Z,53.6
2022-09-14T11:10:23.743Z,53.5
2022-09-14T11:12:07.395Z,53.5
2022-09-14T11:13:51.088Z,53.4
2022-09-14T11:15:34.816Z,53.4
2022-09-14T11:17:18.490Z,53.4
2022-09-14T11:19:02.185Z,53.4
2022-09-14T11:20:45.902Z,53.4
2022-09-14T11:22:29.597Z,53.3
2022-09-14T11:24:13.295Z,53.1
2022-09-14T11:25:57.086Z,53
2022-09-14T11:27:40.753Z,52.9
2022-09-14T11:29:24.389Z,52.9
2022-09-14T11:31:08.122Z,52.9
2022-09-14T11:32:51.831Z,53
2022-09-14T11:34:35.610Z,53.1
2022-09-14T11:36:19.192Z,53.1
2022-09-14T11:38:02.912Z,53.2
2022-09-14T11:39:46.641Z,53.3
2022-09-14T11:41:30.338Z,53.4
2022-09-14T11:43:14.031Z,53.5
2022-09-14T11:44:57.726Z,53.5
2022-09-14T11:46:41.422Z,53.5
2022-09-14T11:48:25.125Z,53.5
2022-09-14T11:50:08.857Z,53.5
2022-09-14T11:51:52.636Z,53.5
2022-09-14T11:53:36.221Z,53.5
2022-09-14T11:55:19.939Z,53.6
2022-09-14T11:57:03.641Z,53.6
2022-09-14T11:58:47.335Z,53.6
2022-09-14T12:00:31.050Z,53.6
2022-09-14T12:02:14.732Z,53.6
2022-09-14T12:03:58.437Z,53.6
2022-09-14T12:05:42.149Z,53.8
2022-09-14T12:07:25.879Z,53.9
2022-09-14T12:09:09.547Z,54
2022-09-14T12:10:53.260Z,53.9
2022-09-14T12:12:36.958Z,54
2022-09-14T12:14:20.655Z,54
2022-09-14T12:16:04.339Z,54.1
2022-09-14T12:17:48.053Z,54.2
2022-09-14T12:19:31.759Z,54.3
2022-09-14T12:21:15.455Z,54.4
2022-09-14T12:22:59.145Z,54.4
2022-09-14T12:24:42.860Z,54.5
2022-09-14T12:26:26.580Z,54.5
2022-09-14T12:28:10.269Z,54.5
2022-09-14T12:29:53.960Z,54.5
2022-09-14T12:31:37.678Z,54.4
2022-09-14T12:33:21.377Z,54.4
2022-09-14T12:35:05.095Z,54.3
2022-09-14T12:36:48.864Z,54.3
2022-09-14T12:38:32.485Z,54.3
2022-09-14T12:40:16.191Z,54.3
2022-09-14T12:41:59.884Z,54.4
2022-09-14T12:43:43.580Z,54.5
2022-09-14T12:45:27.279Z,54.6
2022-09-14T12:47:10.998Z,54.6
2022-09-14T12:48:54.754Z,54.7
2022-09-14T12:50:38.379Z,54.8
2022-09-14T12:52:22.115Z,54.9
2022-09-14T12:54:05.948Z,54.9
2022-09-14T12:55:49.481Z,55
2022-09-14T12:57:33.176Z,55
2022-09-14T12:59:16.922Z,55.1
2022-09-14T13:01:00.720Z,55.2
2022-09-14T13:02:44.291Z,55.2
2022-09-14T13:04:27.998Z,55.3
2022-09-14T13:06:11.701Z,55.3
2022-09-14T13:07:55.414Z,55.3
2022-09-14T13:09:39.098Z,55.3
2022-09-14T13:11:22.805Z,55.4
2022-09-14T13:13:06.513Z,55.4
2022-09-14T13:14:50.219Z,55.4
2022-09-14T13:16:34.062Z,55.4
2022-09-14T13:18:17.767Z,55.4
2022-09-14T13:20:01.438Z,55.5
2022-09-14T13:21:45.132Z,55.5
2022-09-14T13:23:28.869Z,55.5
2022-09-14T13:25:12.564Z,55.5
2022-09-14T13:26:56.206Z,55.5
2022-09-14T13:28:39.979Z,55.6
2022-09-14T13:30:23.686Z,55.6
2022-09-14T13:32:07.242Z,55.6
2022-09-14T13:33:51.098Z,55.7
2022-09-14T13:35:34.649Z,55.7
2022-09-14T13:37:18.477Z,55.8
2022-09-14T13:39:02.070Z,55.8
2022-09-14T13:40:45.767Z,55.8
2022-09-14T13:42:29.441Z,55.8
2022-09-14T13:44:13.155Z,55.8
2022-09-14T13:45:56.857Z,55.7
2022-09-14T13:47:40.571Z,55.7
2022-09-14T13:49:24.261Z,55.7
2022-09-14T13:51:07.962Z,55.6
2022-09-14T13:52:51.675Z,55.6
2022-09-14T13:54:35.367Z,55.6
2022-09-14T13:56:19.071Z,55.6
2022-09-14T13:58:02.783Z,55.6
2022-09-14T13:59:46.525Z,55.6
2022-09-14T14:01:30.178Z,55.6
2022-09-14T14:03:13.876Z,55.7
2022-09-14T14:04:57.574Z,55.7
2022-09-14T14:06:41.300Z,55.7
2022-09-14T14:08:24.965Z,55.7
2022-09-14T14:10:08.680Z,55.8
2022-09-14T14:11:52.382Z,55.8
2022-09-14T14:13:36.081Z,55.8
2022-09-14T14:15:19.761Z,55.8
2022-09-14T14:17:03.479Z,55.8
2022-09-14T14:18:47.178Z,55.9
2022-09-14T14:20:30.949Z,55.9
2022-09-14T14:22:14.616Z,56
2022-09-14T14:23:58.302Z,56
2022-09-14T14:25:42.011Z,56.1
2022-09-14T14:27:25.698Z,56.2
2022-09-14T14:29:09.383Z,56.3
2022-09-14T14:30:53.106Z,56.4
2022-09-14T14:32:36.837Z,56.4
2022-09-14T14:34:20.636Z,56.5
2022-09-14T14:36:04.203Z,56.5
2022-09-14T14:37:47.906Z,56.5
2022-09-14T14:39:31.796Z,56.4
2022-09-14T14:41:15.350Z,56.5
2022-09-14T14:42:59.019Z,56.6
2022-09-14T14:44:42.723Z,56.6
2022-09-14T14:46:26.515Z,56.6
2022-09-14T14:48:10.114Z,56.6
2022-09-14T14:49:53.859Z,56.6
2022-09-14T14:51:37.591Z,56.7
2022-09-14T14:53:21.233Z,56.7
2022-09-14T14:55:04.952Z,56.8
2022-09-14T14:56:48.647Z,56.8
2022-09-14T14:58:32.358Z,56.7
2022-09-14T15:00:16.039Z,56.7
2022-09-14T15:01:59.754Z,56.7
2022-09-14T15:03:43.444Z,56.7
2022-09-14T15:05:27.148Z,56.8
2022-09-14T15:07:10.853Z,56.9
2022-09-14T15:08:54.553Z,56.9
2022-09-14T15:10:38.261Z,57
2022-09-14T15:12:21.956Z,57.1
2022-09-14T15:14:05.669Z,57.1
2022-09-14T15:15:49.377Z,57.2
2022-09-14T15:17:33.080Z,57.2
2022-09-14T15:19:16.807Z,57.3
2022-09-14T15:21:00.467Z,57.3
2022-09-14T15:22:44.162Z,57.4
2022-09-14T15:24:27.884Z,57.4
2022-09-14T15:26:11.570Z,57.5
2022-09-14T15:27:55.294Z,57.4
2022-09-14T15:29:38.980Z,57.4
2022-09-14T15:31:22.747Z,57.4
2022-09-14T15:33:06.385Z,57.3
2022-09-14T15:34:50.082Z,57.2
2022-09-14T15:36:33.782Z,57.2
2022-09-14T15:38:17.494Z,57.1
2022-09-14T15:40:01.225Z,57.1
2022-09-14T15:41:44.890Z,57.1
2022-09-14T15:43:28.568Z,57.1
2022-09-14T15:45:12.273Z,57.1
2022-09-14T15:46:55.999Z,57.1
2022-09-14T15:48:39.701Z,57
2022-09-14T15:50:23.386Z,57
2022-09-14T15:52:07.090Z,57
2022-09-14T15:53:50.783Z,57
2022-09-14T15:55:34.509Z,57
2022-09-14T15:57:18.199Z,57
2022-09-14T15:59:01.903Z,57
2022-09-14T16:00:45.601Z,57.1
2022-09-14T16:02:29.312Z,57.1
2022-09-14T16:04:13.026Z,57.1
2022-09-14T16:05:56.713Z,57.2
2022-09-14T16:07:40.414Z,57.3
2022-09-14T16:09:24.127Z,57.4
2022-09-14T16:11:07.805Z,57.5
2022-09-14T16:12:51.502Z,57.5
2022-09-14T16:14:35.220Z,57.6
2022-09-14T16:16:18.914Z,57.6
2022-09-14T16:18:02.602Z,57.7
2022-09-14T16:19:46.301Z,57.8
2022-09-14T16:21:30.018Z,57.8
2022-09-14T16:23:13.708Z,57.9
2022-09-14T16:24:57.401Z,58
2022-09-14T16:26:41.126Z,58
2022-09-14T16:28:24.835Z,58.1
2022-09-14T16:30:08.515Z,58.2
2022-09-14T16:31:52.223Z,58.3
2022-09-14T16:33:35.941Z,58.5
2022-09-14T16:35:19.660Z,58.6
2022-09-14T16:38:47.038Z,58.8
2022-09-14T16:40:30.737Z,58.9
2022-09-14T16:42:14.455Z,59
2022-09-14T16:43:58.151Z,59
2022-09-14T16:45:41.853Z,59.1
2022-09-14T16:47:25.585Z,59.2
2022-09-14T16:49:09.263Z,59.3
2022-09-14T16:50:52.965Z,59.3
2022-09-14T16:52:36.653Z,59.4
2022-09-14T16:54:20.366Z,59.5
2022-09-14T16:56:04.071Z,59.5
2022-09-14T16:57:47.759Z,59.5
2022-09-14T16:59:31.483Z,59.5
2022-09-14T17:01:15.162Z,59.6
2022-09-14T17:02:58.860Z,59.6
2022-09-14T17:04:42.802Z,59.6
2022-09-14T17:06:26.281Z,59.7
2022-09-14T17:08:09.950Z,59.7
2022-09-14T17:09:53.675Z,59.7
2022-09-14T17:11:37.403Z,59.8
2022-09-14T17:13:21.070Z,59.8
2022-09-14T17:15:04.760Z,59.9
2022-09-14T17:16:48.470Z,59.9
2022-09-14T17:18:32.155Z,60
2022-09-14T17:20:15.873Z,60
2022-09-14T17:21:59.560Z,60.1
2022-09-14T17:23:43.264Z,60.1
2022-09-14T17:25:26.959Z,60.1
2022-09-14T17:27:10.929Z,60.2
2022-09-14T17:28:54.375Z,60.3
2022-09-14T17:30:38.080Z,60.3
2022-09-14T17:32:21.781Z,60.4
2022-09-14T17:34:05.519Z,60.4
2022-09-14T17:35:49.189Z,60.5
2022-09-14T17:37:32.875Z,60.5
2022-09-14T17:39:16.584Z,60.5
2022-09-14T17:41:00.282Z,60.5
2022-09-14T17:42:43.977Z,60.6
2022-09-14T17:44:27.677Z,60.7
2022-09-14T17:46:11.635Z,60.7
2022-09-14T17:47:55.099Z,60.7
2022-09-14T17:49:38.787Z,60.8
2022-09-14T17:51:22.468Z,60.8
2022-09-14T17:53:06.162Z,60.8
2022-09-14T17:54:49.889Z,60.9
2022-09-14T17:56:33.594Z,60.9
2022-09-14T17:58:17.282Z,60.9
2022-09-14T18:00:00.990Z,60.9
2022-09-14T18:01:44.733Z,61
2022-09-14T18:03:28.394Z,61
2022-09-14T18:05:12.075Z,61
2022-09-14T18:06:55.776Z,61
2022-09-14T18:08:39.488Z,61.1
2022-09-14T18:10:23.178Z,61.1
2022-09-14T18:12:06.889Z,61.1
2022-09-14T18:13:50.585Z,61.2
2022-09-14T18:15:34.315Z,61.2
2022-09-14T18:17:17.996Z,61.2
2022-09-14T18:19:01.697Z,61.2
2022-09-14T18:20:45.398Z,61.3
2022-09-14T18:22:29.097Z,61.3
2022-09-14T18:24:12.839Z,61.3
2022-09-14T18:25:56.514Z,61.4
2022-09-14T18:27:40.197Z,61.4
2022-09-14T18:29:23.919Z,61.3
2022-09-14T18:31:07.607Z,61.4
2022-09-14T18:32:51.305Z,61.4
2022-09-14T18:34:35.022Z,61.4
2022-09-14T18:36:18.718Z,61.5
2022-09-14T18:38:02.397Z,61.5
2022-09-14T18:39:46.105Z,61.5
2022-09-14T18:41:29.812Z,61.5
2022-09-14T18:43:13.507Z,61.5
2022-09-14T18:44:57.210Z,61.5
2022-09-14T18:46:40.903Z,61.6
2022-09-14T18:48:24.635Z,61.6
2022-09-14T18:50:08.320Z,61.6
2022-09-14T18:51:52.011Z,61.7
2022-09-14T18:53:35.732Z,61.6
2022-09-14T18:55:19.408Z,61.6
2022-09-14T18:57:03.116Z,61.6
2022-09-14T18:58:46.854Z,61.7
2022-09-14T19:00:30.519Z,61.7
2022-09-14T19:02:14.221Z,61.7
2022-09-14T19:03:57.936Z,61.7
2022-09-14T19:05:41.656Z,61.7
2022-09-14T19:07:25.332Z,61.7
2022-09-14T19:09:09.017Z,61.7
2022-09-14T19:10:52.746Z,61.8
2022-09-14T19:12:36.424Z,61.8
2022-09-14T19:14:20.162Z,61.8
2022-09-14T19:16:03.837Z,61.8
2022-09-14T19:17:47.540Z,61.8
2022-09-14T19:19:31.237Z,61.8
2022-09-14T19:21:14.937Z,61.7
2022-09-14T19:22:58.636Z,61.7
2022-09-14T19:24:42.349Z,61.7
2022-09-14T19:26:26.046Z,61.8
2022-09-14T19:28:09.757Z,61.8
2022-09-14T19:29:53.459Z,61.8
2022-09-14T19:31:37.154Z,61.8
2022-09-14T19:33:20.852Z,61.8
2022-09-14T19:35:04.572Z,61.8
2022-09-14T19:36:48.268Z,61.8
2022-09-14T19:38:31.959Z,61.8
2022-09-14T19:40:15.667Z,61.8
2022-09-14T19:41:59.398Z,61.8
2022-09-14T19:43:43.091Z,61.8
2022-09-14T19:45:26.793Z,61.8
2022-09-14T19:47:10.491Z,61.8
2022-09-14T19:48:54.193Z,61.8
2022-09-14T19:50:37.890Z,61.8
2022-09-14T19:52:21.591Z,61.8
2022-09-14T19:54:05.283Z,61.8
2022-09-14T19:55:48.995Z,61.8
2022-09-14T19:57:32.690Z,61.8
2022-09-14T19:59:16.394Z,61.8
2022-09-14T20:01:00.096Z,61.8
2022-09-14T20:02:43.813Z,61.8
2022-09-14T20:04:27.498Z,61.8
2022-09-14T20:06:11.202Z,61.8
2022-09-14T20:07:54.891Z,61.8
2022-09-14T20:09:38.603Z,61.8
2022-09-14T20:11:22.317Z,61.8
2022-09-14T20:13:06.041Z,61.8
2022-09-14T20:14:49.703Z,61.8
2022-09-14T20:16:33.400Z,61.9
2022-09-14T20:18:17.098Z,61.9
2022-09-14T20:20:00.811Z,61.9
2022-09-14T20:21:44.517Z,61.9
2022-09-14T20:23:28.214Z,61.9
2022-09-14T20:25:11.939Z,61.9
2022-09-14T20:26:55.617Z,61.9
2022-09-14T20:28:39.347Z,61.9
2022-09-14T20:30:23.027Z,61.9
2022-09-14T20:32:06.790Z,61.9
2022-09-14T20:33:50.447Z,61.9
2022-09-14T20:35:34.202Z,62
2022-09-14T20:37:17.929Z,62
2022-09-14T20:39:01.688Z,62
2022-09-14T20:40:45.355Z,62
2022-09-14T20:42:29.079Z,62
2022-09-14T20:44:12.812Z,62
2022-09-14T20:45:56.499Z,62
2022-09-14T20:47:40.217Z,62
2022-09-14T20:49:23.912Z,62
2022-09-14T20:51:07.616Z,62
2022-09-14T20:52:51.315Z,62
2022-09-14T20:54:35.029Z,62
2022-09-14T20:56:18.687Z,62
2022-09-14T20:58:02.376Z,62
2022-09-14T20:59:46.114Z,62
2022-09-14T21:01:29.824Z,62
2022-09-14T21:03:13.530Z,62
2022-09-14T21:04:57.157Z,62
2022-09-14T21:06:40.932Z,62
2022-09-14T21:08:24.488Z,62
2022-09-14T21:10:08.327Z,62
2022-09-14T21:11:52.023Z,62
2022-09-14T21:13:35.720Z,62
2022-09-14T21:15:19.296Z,62.1
2022-09-14T21:17:03.013Z,62.1
2022-09-14T21:18:46.827Z,62
2022-09-14T21:20:30.460Z,62.1
2022-09-14T21:22:14.183Z,62.1
2022-09-14T21:23:57.801Z,62.1
2022-09-14T21:25:41.502Z,62.1
2022-09-14T21:27:25.220Z,62.1
2022-09-14T21:29:08.899Z,62.1
2022-09-14T21:30:52.721Z,62.1
2022-09-14T21:32:36.392Z,62.1
2022-09-14T21:34:20.018Z,62.1
2022-09-14T21:36:03.727Z,62.1
2022-09-14T21:37:47.412Z,62.1
2022-09-14T21:39:31.198Z,62.1
2022-09-14T21:41:14.866Z,62.1
2022-09-14T21:42:58.533Z,62.2
2022-09-14T21:44:42.371Z,62.1
2022-09-14T21:46:25.973Z,62.1
2022-09-14T21:48:09.618Z,62.2
2022-09-14T21:49:53.454Z,62.2
2022-09-14T21:51:37.116Z,62.2
2022-09-14T21:53:20.771Z,62.2
2022-09-14T21:55:04.474Z,62.3
2022-09-14T21:56:48.180Z,62.3
2022-09-14T21:58:31.857Z,62.3
2022-09-14T22:00:15.600Z,62.3
2022-09-14T22:01:59.314Z,62.3
2022-09-14T22:03:42.950Z,62.3
2022-09-14T22:05:26.652Z,62.3
2022-09-14T22:07:10.346Z,62.3
2022-09-14T22:08:54.111Z,62.3
2022-09-14T22:10:37.782Z,62.3
2022-09-14T22:12:21.442Z,62.3
2022-09-14T22:14:05.244Z,62.3
2022-09-14T22:15:48.845Z,62.3
2022-09-14T22:17:32.616Z,62.4
2022-09-14T22:19:16.350Z,62.3
2022-09-14T22:21:00.056Z,62.4
2022-09-14T22:22:43.673Z,62.4
2022-09-14T22:24:27.406Z,62.4
2022-09-14T22:26:11.129Z,62.4
2022-09-14T22:27:54.771Z,62.4
2022-09-14T22:29:38.487Z,62.4
2022-09-14T22:31:22.181Z,62.4
2022-09-14T22:33:05.869Z,62.4
2022-09-14T22:34:49.573Z,62.4
2022-09-14T22:36:33.295Z,62.4
2022-09-14T22:38:17.011Z,62.4
2022-09-14T22:40:00.722Z,62.5
2022-09-14T22:41:44.421Z,62.5
2022-09-14T22:43:28.156Z,62.5
2022-09-14T22:45:11.826Z,62.5
2022-09-14T22:46:55.561Z,62.5
2022-09-14T22:48:39.241Z,62.5
2022-09-14T22:50:22.912Z,62.5
2022-09-14T22:52:06.593Z,62.5
2022-09-14T22:53:50.342Z,62.5
2022-09-14T22:55:34.008Z,62.5
2022-09-14T22:57:17.720Z,62.5
2022-09-14T22:59:01.422Z,62.5
2022-09-14T23:00:45.152Z,62.5
2022-09-14T23:02:28.808Z,62.5
2022-09-14T23:04:12.622Z,62.5
2022-09-14T23:05:56.251Z,62.5
2022-09-14T23:07:39.943Z,62.5
2022-09-14T23:09:23.655Z,62.5
2022-09-14T23:11:07.332Z,62.5
2022-09-14T23:12:51.045Z,62.5
2022-09-14T23:14:34.763Z,62.5
2022-09-14T23:16:18.433Z,62.6